sensor_id;sensor_type;location;lat;lon;timestamp;pressure;altitude;pressure_sealevel;temperature;humidity
68169;BME280;54981;50.206;15.978;2023-07-13T00:02:23;98410.91;;;20.18;nan
68169;BME280;54981;50.206;15.978;2023-07-13T00:04:53;98418.47;;;20.15;nan
68169;BME280;54981;50.206;15.978;2023-07-13T00:07:24;98433.94;;;20.05;nan
68169;BME280;54981;50.206;15.978;2023-07-13T00:09:54;98444.38;;;19.99;nan
68169;BME280;54981;50.206;15.978;2023-07-13T00:12:28;98439.78;;;20.18;nan
68169;BME280;54981;50.206;15.978;2023-07-13T00:15:05;98445.97;;;20.10;nan
68169;BME280;54981;50.206;15.978;2023-07-13T00:17:36;98448.38;;;19.95;nan
68169;BME280;54981;50.206;15.978;2023-07-13T00:20:08;98453.88;;;20.04;nan
68169;BME280;54981;50.206;15.978;2023-07-13T00:22:39;98454.75;;;20.12;nan
68169;BME280;54981;50.206;15.978;2023-07-13T00:25:11;98455.84;;;20.19;nan
68169;BME280;54981;50.206;15.978;2023-07-13T00:27:43;98467.03;;;20.25;nan
68169;BME280;54981;50.206;15.978;2023-07-13T00:30:14;98475.97;;;20.25;nan
68169;BME280;54981;50.206;15.978;2023-07-13T00:32:45;98477.13;;;20.22;nan
68169;BME280;54981;50.206;15.978;2023-07-13T00:35:16;98459.19;;;20.13;nan
68169;BME280;54981;50.206;15.978;2023-07-13T00:37:47;98458.25;;;20.05;nan
68169;BME280;54981;50.206;15.978;2023-07-13T00:40:18;98449.50;;;19.85;nan
68169;BME280;54981;50.206;15.978;2023-07-13T00:42:52;98458.19;;;19.78;nan
68169;BME280;54981;50.206;15.978;2023-07-13T00:47:53;98458.56;;;19.84;nan
68169;BME280;54981;50.206;15.978;2023-07-13T00:50:25;98456.34;;;19.97;nan
68169;BME280;54981;50.206;15.978;2023-07-13T00:52:56;98457.50;;;19.94;nan
68169;BME280;54981;50.206;15.978;2023-07-13T00:55:28;98458.34;;;19.95;nan
68169;BME280;54981;50.206;15.978;2023-07-13T00:57:59;98458.97;;;19.89;nan
68169;BME280;54981;50.206;15.978;2023-07-13T01:00:30;98455.56;;;19.51;nan
68169;BME280;54981;50.206;15.978;2023-07-13T01:03:01;98438.41;;;19.60;nan
68169;BME280;54981;50.206;15.978;2023-07-13T01:05:34;98431.63;;;19.56;nan
68169;BME280;54981;50.206;15.978;2023-07-13T01:08:05;98428.22;;;19.54;nan
68169;BME280;54981;50.206;15.978;2023-07-13T01:10:35;98413.00;;;19.53;nan
68169;BME280;54981;50.206;15.978;2023-07-13T01:13:10;98407.47;;;19.54;nan
68169;BME280;54981;50.206;15.978;2023-07-13T01:15:43;98404.63;;;19.56;nan
68169;BME280;54981;50.206;15.978;2023-07-13T01:18:20;98379.94;;;19.51;nan
68169;BME280;54981;50.206;15.978;2023-07-13T01:23:24;98394.75;;;19.47;nan
68169;BME280;54981;50.206;15.978;2023-07-13T01:25:56;98398.91;;;19.23;nan
68169;BME280;54981;50.206;15.978;2023-07-13T01:28:28;98400.81;;;19.13;nan
68169;BME280;54981;50.206;15.978;2023-07-13T01:30:58;98402.59;;;19.22;nan
68169;BME280;54981;50.206;15.978;2023-07-13T01:33:30;98399.28;;;19.10;nan
68169;BME280;54981;50.206;15.978;2023-07-13T01:36:00;98405.19;;;18.96;nan
68169;BME280;54981;50.206;15.978;2023-07-13T01:38:32;98405.97;;;19.06;nan
68169;BME280;54981;50.206;15.978;2023-07-13T01:41:03;98402.88;;;19.19;nan
68169;BME280;54981;50.206;15.978;2023-07-13T01:43:34;98398.50;;;19.18;nan
68169;BME280;54981;50.206;15.978;2023-07-13T01:46:04;98392.22;;;19.00;nan
68169;BME280;54981;50.206;15.978;2023-07-13T01:48:34;98383.97;;;18.83;nan
68169;BME280;54981;50.206;15.978;2023-07-13T01:51:05;98387.44;;;18.93;nan
68169;BME280;54981;50.206;15.978;2023-07-13T01:53:35;98386.81;;;19.00;nan
68169;BME280;54981;50.206;15.978;2023-07-13T01:56:06;98383.47;;;18.88;nan
68169;BME280;54981;50.206;15.978;2023-07-13T01:58:36;98384.34;;;18.51;nan
68169;BME280;54981;50.206;15.978;2023-07-13T02:01:06;98374.09;;;18.64;nan
68169;BME280;54981;50.206;15.978;2023-07-13T02:03:37;98379.25;;;18.76;nan
68169;BME280;54981;50.206;15.978;2023-07-13T02:06:07;98383.34;;;18.89;nan
68169;BME280;54981;50.206;15.978;2023-07-13T02:08:38;98384.25;;;18.80;nan
68169;BME280;54981;50.206;15.978;2023-07-13T02:11:08;98389.75;;;18.88;nan
68169;BME280;54981;50.206;15.978;2023-07-13T02:13:39;98388.84;;;18.60;nan
68169;BME280;54981;50.206;15.978;2023-07-13T02:16:09;98387.84;;;18.61;nan
68169;BME280;54981;50.206;15.978;2023-07-13T02:18:40;98397.06;;;18.31;nan
68169;BME280;54981;50.206;15.978;2023-07-13T02:21:10;98383.72;;;18.29;nan
68169;BME280;54981;50.206;15.978;2023-07-13T02:23:41;98387.44;;;18.28;nan
68169;BME280;54981;50.206;15.978;2023-07-13T02:26:11;98384.31;;;18.23;nan
68169;BME280;54981;50.206;15.978;2023-07-13T02:28:41;98389.16;;;18.20;nan
68169;BME280;54981;50.206;15.978;2023-07-13T02:31:14;98390.56;;;18.24;nan
68169;BME280;54981;50.206;15.978;2023-07-13T02:33:44;98389.06;;;18.39;nan
68169;BME280;54981;50.206;15.978;2023-07-13T02:36:15;98402.38;;;18.50;nan
68169;BME280;54981;50.206;15.978;2023-07-13T02:38:46;98401.19;;;18.63;nan
68169;BME280;54981;50.206;15.978;2023-07-13T02:41:16;98410.28;;;18.62;nan
68169;BME280;54981;50.206;15.978;2023-07-13T02:43:47;98409.38;;;18.71;nan
68169;BME280;54981;50.206;15.978;2023-07-13T02:46:17;98404.44;;;18.76;nan
68169;BME280;54981;50.206;15.978;2023-07-13T02:48:49;98413.09;;;18.70;nan
68169;BME280;54981;50.206;15.978;2023-07-13T02:51:20;98421.75;;;18.26;nan
68169;BME280;54981;50.206;15.978;2023-07-13T02:53:50;98425.66;;;18.42;nan
68169;BME280;54981;50.206;15.978;2023-07-13T02:56:23;98425.66;;;18.42;nan
68169;BME280;54981;50.206;15.978;2023-07-13T02:58:54;98418.00;;;18.47;nan
68169;BME280;54981;50.206;15.978;2023-07-13T03:01:25;98429.94;;;18.35;nan
68169;BME280;54981;50.206;15.978;2023-07-13T03:03:55;98432.06;;;18.41;nan
68169;BME280;54981;50.206;15.978;2023-07-13T03:06:26;98428.50;;;18.50;nan
68169;BME280;54981;50.206;15.978;2023-07-13T03:08:59;98433.84;;;18.60;nan
68169;BME280;54981;50.206;15.978;2023-07-13T03:11:30;98430.44;;;18.58;nan
68169;BME280;54981;50.206;15.978;2023-07-13T03:14:01;98438.69;;;18.56;nan
68169;BME280;54981;50.206;15.978;2023-07-13T03:16:31;98437.53;;;18.59;nan
68169;BME280;54981;50.206;15.978;2023-07-13T03:19:02;98442.03;;;18.68;nan
68169;BME280;54981;50.206;15.978;2023-07-13T03:21:32;98440.44;;;18.75;nan
68169;BME280;54981;50.206;15.978;2023-07-13T03:24:03;98441.91;;;18.79;nan
68169;BME280;54981;50.206;15.978;2023-07-13T03:26:34;98442.88;;;18.78;nan
68169;BME280;54981;50.206;15.978;2023-07-13T03:29:04;98446.28;;;18.80;nan
68169;BME280;54981;50.206;15.978;2023-07-13T03:31:36;98451.97;;;18.77;nan
68169;BME280;54981;50.206;15.978;2023-07-13T03:34:07;98435.22;;;18.83;nan
68169;BME280;54981;50.206;15.978;2023-07-13T03:36:37;98443.00;;;18.86;nan
68169;BME280;54981;50.206;15.978;2023-07-13T03:39:08;98432.88;;;18.98;nan
68169;BME280;54981;50.206;15.978;2023-07-13T03:41:39;98431.31;;;18.96;nan
68169;BME280;54981;50.206;15.978;2023-07-13T03:44:10;98439.59;;;19.12;nan
68169;BME280;54981;50.206;15.978;2023-07-13T03:46:40;98440.84;;;19.18;nan
68169;BME280;54981;50.206;15.978;2023-07-13T03:49:10;98441.69;;;19.18;nan
68169;BME280;54981;50.206;15.978;2023-07-13T03:51:41;98444.38;;;19.18;nan
68169;BME280;54981;50.206;15.978;2023-07-13T03:54:11;98451.19;;;19.22;nan
68169;BME280;54981;50.206;15.978;2023-07-13T03:56:42;98458.38;;;19.31;nan
68169;BME280;54981;50.206;15.978;2023-07-13T03:59:12;98451.06;;;19.42;nan
68169;BME280;54981;50.206;15.978;2023-07-13T04:01:43;98453.13;;;19.30;nan
68169;BME280;54981;50.206;15.978;2023-07-13T04:04:14;98464.06;;;19.28;nan
68169;BME280;54981;50.206;15.978;2023-07-13T04:06:45;98467.84;;;19.35;nan
68169;BME280;54981;50.206;15.978;2023-07-13T04:09:16;98472.66;;;19.42;nan
68169;BME280;54981;50.206;15.978;2023-07-13T04:11:46;98478.91;;;19.42;nan
68169;BME280;54981;50.206;15.978;2023-07-13T04:14:17;98476.56;;;19.29;nan
68169;BME280;54981;50.206;15.978;2023-07-13T04:16:47;98474.47;;;19.23;nan
68169;BME280;54981;50.206;15.978;2023-07-13T04:19:17;98485.88;;;19.17;nan
68169;BME280;54981;50.206;15.978;2023-07-13T04:21:48;98482.22;;;19.08;nan
68169;BME280;54981;50.206;15.978;2023-07-13T04:24:18;98491.38;;;19.25;nan
68169;BME280;54981;50.206;15.978;2023-07-13T04:26:49;98496.25;;;19.40;nan
68169;BME280;54981;50.206;15.978;2023-07-13T04:29:20;98495.69;;;19.36;nan
68169;BME280;54981;50.206;15.978;2023-07-13T04:31:50;98497.06;;;19.22;nan
68169;BME280;54981;50.206;15.978;2023-07-13T04:34:22;98500.88;;;19.29;nan
68169;BME280;54981;50.206;15.978;2023-07-13T04:36:54;98505.19;;;19.40;nan
68169;BME280;54981;50.206;15.978;2023-07-13T04:39:24;98500.19;;;19.45;nan
68169;BME280;54981;50.206;15.978;2023-07-13T04:41:55;98501.00;;;19.55;nan
68169;BME280;54981;50.206;15.978;2023-07-13T04:44:26;98497.16;;;19.58;nan
68169;BME280;54981;50.206;15.978;2023-07-13T04:46:56;98501.84;;;19.56;nan
68169;BME280;54981;50.206;15.978;2023-07-13T04:49:26;98509.38;;;19.34;nan
68169;BME280;54981;50.206;15.978;2023-07-13T04:51:57;98513.31;;;19.40;nan
68169;BME280;54981;50.206;15.978;2023-07-13T04:54:27;98512.66;;;19.56;nan
68169;BME280;54981;50.206;15.978;2023-07-13T04:56:58;98516.03;;;19.86;nan
68169;BME280;54981;50.206;15.978;2023-07-13T04:59:28;98506.22;;;19.85;nan
68169;BME280;54981;50.206;15.978;2023-07-13T05:01:58;98505.00;;;19.97;nan
68169;BME280;54981;50.206;15.978;2023-07-13T05:04:29;98501.41;;;20.14;nan
68169;BME280;54981;50.206;15.978;2023-07-13T05:06:59;98488.31;;;20.46;nan
68169;BME280;54981;50.206;15.978;2023-07-13T05:09:30;98490.34;;;20.70;nan
68169;BME280;54981;50.206;15.978;2023-07-13T05:12:00;98488.59;;;20.87;nan
68169;BME280;54981;50.206;15.978;2023-07-13T05:14:31;98485.06;;;20.94;nan
68169;BME280;54981;50.206;15.978;2023-07-13T05:17:01;98484.25;;;21.02;nan
68169;BME280;54981;50.206;15.978;2023-07-13T05:19:32;98480.22;;;21.06;nan
68169;BME280;54981;50.206;15.978;2023-07-13T05:22:03;98480.91;;;21.08;nan
68169;BME280;54981;50.206;15.978;2023-07-13T05:24:34;98477.75;;;21.21;nan
68169;BME280;54981;50.206;15.978;2023-07-13T05:27:05;98477.88;;;21.45;nan
68169;BME280;54981;50.206;15.978;2023-07-13T05:29:35;98474.22;;;21.87;nan
68169;BME280;54981;50.206;15.978;2023-07-13T05:32:06;98476.06;;;22.20;nan
68169;BME280;54981;50.206;15.978;2023-07-13T05:34:36;98478.31;;;22.24;nan
68169;BME280;54981;50.206;15.978;2023-07-13T05:37:07;98474.59;;;22.42;nan
68169;BME280;54981;50.206;15.978;2023-07-13T05:39:38;98486.44;;;22.41;nan
68169;BME280;54981;50.206;15.978;2023-07-13T05:42:08;98473.53;;;22.51;nan
68169;BME280;54981;50.206;15.978;2023-07-13T05:44:39;98476.25;;;22.51;nan
68169;BME280;54981;50.206;15.978;2023-07-13T05:47:09;98485.06;;;22.04;nan
68169;BME280;54981;50.206;15.978;2023-07-13T05:49:40;98486.25;;;22.01;nan
68169;BME280;54981;50.206;15.978;2023-07-13T05:52:10;98482.19;;;21.89;nan
68169;BME280;54981;50.206;15.978;2023-07-13T05:54:41;98488.13;;;22.01;nan
68169;BME280;54981;50.206;15.978;2023-07-13T05:57:11;98479.97;;;21.84;nan
68169;BME280;54981;50.206;15.978;2023-07-13T05:59:42;98500.66;;;21.94;nan
68169;BME280;54981;50.206;15.978;2023-07-13T06:02:14;98501.16;;;21.89;nan
68169;BME280;54981;50.206;15.978;2023-07-13T06:04:44;98490.94;;;21.58;nan
68169;BME280;54981;50.206;15.978;2023-07-13T06:07:14;98499.41;;;21.55;nan
68169;BME280;54981;50.206;15.978;2023-07-13T06:09:45;98509.34;;;21.46;nan
68169;BME280;54981;50.206;15.978;2023-07-13T06:12:15;98519.16;;;21.39;nan
68169;BME280;54981;50.206;15.978;2023-07-13T06:14:46;98525.59;;;21.46;nan
68169;BME280;54981;50.206;15.978;2023-07-13T06:17:16;98532.97;;;21.70;nan
68169;BME280;54981;50.206;15.978;2023-07-13T06:19:47;98533.78;;;21.63;nan
68169;BME280;54981;50.206;15.978;2023-07-13T06:22:17;98541.31;;;21.43;nan
68169;BME280;54981;50.206;15.978;2023-07-13T06:24:48;98541.31;;;21.09;nan
68169;BME280;54981;50.206;15.978;2023-07-13T06:27:18;98542.56;;;21.22;nan
68169;BME280;54981;50.206;15.978;2023-07-13T06:29:48;98555.44;;;20.94;nan
68169;BME280;54981;50.206;15.978;2023-07-13T06:32:19;98548.56;;;21.00;nan
68169;BME280;54981;50.206;15.978;2023-07-13T06:34:49;98541.09;;;21.02;nan
68169;BME280;54981;50.206;15.978;2023-07-13T06:37:21;98540.91;;;20.95;nan
68169;BME280;54981;50.206;15.978;2023-07-13T06:39:52;98532.50;;;20.80;nan
68169;BME280;54981;50.206;15.978;2023-07-13T06:42:22;98524.78;;;21.20;nan
68169;BME280;54981;50.206;15.978;2023-07-13T06:44:53;98515.84;;;21.27;nan
68169;BME280;54981;50.206;15.978;2023-07-13T06:47:23;98513.34;;;21.34;nan
68169;BME280;54981;50.206;15.978;2023-07-13T06:49:54;98514.94;;;21.19;nan
68169;BME280;54981;50.206;15.978;2023-07-13T06:52:24;98514.56;;;21.05;nan
68169;BME280;54981;50.206;15.978;2023-07-13T06:54:54;98506.84;;;21.19;nan
68169;BME280;54981;50.206;15.978;2023-07-13T06:57:25;98515.41;;;21.40;nan
68169;BME280;54981;50.206;15.978;2023-07-13T06:59:56;98526.66;;;21.62;nan
68169;BME280;54981;50.206;15.978;2023-07-13T07:02:27;98517.00;;;21.59;nan
68169;BME280;54981;50.206;15.978;2023-07-13T07:04:57;98521.94;;;21.64;nan
68169;BME280;54981;50.206;15.978;2023-07-13T07:07:28;98522.59;;;21.58;nan
68169;BME280;54981;50.206;15.978;2023-07-13T07:09:58;98550.19;;;21.53;nan
68169;BME280;54981;50.206;15.978;2023-07-13T07:12:29;98555.41;;;22.13;nan
68169;BME280;54981;50.206;15.978;2023-07-13T07:14:59;98557.16;;;22.47;nan
68169;BME280;54981;50.206;15.978;2023-07-13T07:17:30;98565.81;;;22.43;nan
68169;BME280;54981;50.206;15.978;2023-07-13T07:20:00;98569.47;;;22.17;nan
68169;BME280;54981;50.206;15.978;2023-07-13T07:22:31;98568.34;;;22.44;nan
68169;BME280;54981;50.206;15.978;2023-07-13T07:25:02;98575.63;;;22.52;nan
68169;BME280;54981;50.206;15.978;2023-07-13T07:27:32;98571.56;;;22.81;nan
68169;BME280;54981;50.206;15.978;2023-07-13T07:30:03;98574.09;;;22.90;nan
68169;BME280;54981;50.206;15.978;2023-07-13T07:32:33;98585.13;;;22.64;nan
68169;BME280;54981;50.206;15.978;2023-07-13T07:35:04;98578.19;;;22.45;nan
68169;BME280;54981;50.206;15.978;2023-07-13T07:37:35;98574.19;;;22.07;nan
68169;BME280;54981;50.206;15.978;2023-07-13T07:40:06;98575.88;;;22.00;nan
68169;BME280;54981;50.206;15.978;2023-07-13T07:42:36;98584.56;;;22.20;nan
68169;BME280;54981;50.206;15.978;2023-07-13T07:45:07;98595.06;;;22.06;nan
68169;BME280;54981;50.206;15.978;2023-07-13T07:47:38;98586.84;;;22.49;nan
68169;BME280;54981;50.206;15.978;2023-07-13T07:50:09;98592.94;;;22.59;nan
68169;BME280;54981;50.206;15.978;2023-07-13T07:52:39;98600.03;;;22.85;nan
68169;BME280;54981;50.206;15.978;2023-07-13T07:55:10;98594.13;;;22.81;nan
68169;BME280;54981;50.206;15.978;2023-07-13T07:57:40;98599.19;;;22.84;nan
68169;BME280;54981;50.206;15.978;2023-07-13T08:00:11;98599.03;;;22.20;nan
68169;BME280;54981;50.206;15.978;2023-07-13T08:02:42;98598.69;;;22.40;nan
68169;BME280;54981;50.206;15.978;2023-07-13T08:05:13;98605.97;;;22.55;nan
68169;BME280;54981;50.206;15.978;2023-07-13T08:07:43;98607.53;;;22.42;nan
68169;BME280;54981;50.206;15.978;2023-07-13T08:10:13;98613.13;;;22.57;nan
68169;BME280;54981;50.206;15.978;2023-07-13T08:12:44;98611.91;;;22.51;nan
68169;BME280;54981;50.206;15.978;2023-07-13T08:15:16;98611.25;;;22.90;nan
68169;BME280;54981;50.206;15.978;2023-07-13T08:17:48;98613.84;;;23.47;nan
68169;BME280;54981;50.206;15.978;2023-07-13T08:20:18;98612.31;;;23.53;nan
68169;BME280;54981;50.206;15.978;2023-07-13T08:22:49;98610.66;;;23.35;nan
68169;BME280;54981;50.206;15.978;2023-07-13T08:25:19;98622.00;;;23.47;nan
68169;BME280;54981;50.206;15.978;2023-07-13T08:27:50;98617.59;;;23.46;nan
68169;BME280;54981;50.206;15.978;2023-07-13T08:30:21;98605.00;;;24.01;nan
68169;BME280;54981;50.206;15.978;2023-07-13T08:32:52;98616.63;;;23.87;nan
68169;BME280;54981;50.206;15.978;2023-07-13T08:35:23;98617.56;;;23.54;nan
68169;BME280;54981;50.206;15.978;2023-07-13T08:37:55;98620.56;;;23.76;nan
68169;BME280;54981;50.206;15.978;2023-07-13T08:40:27;98609.00;;;24.36;nan
68169;BME280;54981;50.206;15.978;2023-07-13T08:42:58;98616.63;;;24.18;nan
68169;BME280;54981;50.206;15.978;2023-07-13T08:45:44;98618.56;;;24.32;nan
68169;BME280;54981;50.206;15.978;2023-07-13T08:48:27;98618.84;;;24.69;nan
68169;BME280;54981;50.206;15.978;2023-07-13T08:51:08;98610.97;;;24.51;nan
68169;BME280;54981;50.206;15.978;2023-07-13T08:53:43;98619.25;;;24.34;nan
68169;BME280;54981;50.206;15.978;2023-07-13T08:56:23;98626.97;;;24.22;nan
68169;BME280;54981;50.206;15.978;2023-07-13T08:59:01;98632.88;;;24.57;nan
68169;BME280;54981;50.206;15.978;2023-07-13T09:04:29;98631.72;;;25.13;nan
68169;BME280;54981;50.206;15.978;2023-07-13T09:07:11;98633.59;;;25.12;nan
68169;BME280;54981;50.206;15.978;2023-07-13T09:09:50;98630.66;;;24.99;nan
68169;BME280;54981;50.206;15.978;2023-07-13T09:17:52;98637.94;;;25.06;nan
68169;BME280;54981;50.206;15.978;2023-07-13T09:20:28;98640.81;;;24.67;nan
68169;BME280;54981;50.206;15.978;2023-07-13T09:23:05;98641.88;;;24.81;nan
68169;BME280;54981;50.206;15.978;2023-07-13T09:25:38;98653.34;;;24.76;nan
68169;BME280;54981;50.206;15.978;2023-07-13T09:28:15;98643.78;;;24.80;nan
68169;BME280;54981;50.206;15.978;2023-07-13T09:31:02;98647.88;;;24.76;nan
68169;BME280;54981;50.206;15.978;2023-07-13T09:33:33;98644.28;;;24.61;nan
68169;BME280;54981;50.206;15.978;2023-07-13T09:38:49;98657.81;;;24.69;nan
68169;BME280;54981;50.206;15.978;2023-07-13T09:44:15;98656.09;;;24.91;nan
68169;BME280;54981;50.206;15.978;2023-07-13T09:46:55;98672.56;;;24.98;nan
68169;BME280;54981;50.206;15.978;2023-07-13T09:49:27;98648.94;;;24.44;nan
68169;BME280;54981;50.206;15.978;2023-07-13T09:52:04;98657.25;;;24.51;nan
68169;BME280;54981;50.206;15.978;2023-07-13T09:54:36;98658.94;;;24.20;nan
68169;BME280;54981;50.206;15.978;2023-07-13T09:57:16;98664.97;;;24.08;nan
68169;BME280;54981;50.206;15.978;2023-07-13T09:59:48;98660.84;;;24.43;nan
68169;BME280;54981;50.206;15.978;2023-07-13T10:02:30;98671.44;;;24.07;nan
68169;BME280;54981;50.206;15.978;2023-07-13T10:05:06;98669.44;;;24.32;nan
68169;BME280;54981;50.206;15.978;2023-07-13T10:07:39;98672.47;;;24.37;nan
68169;BME280;54981;50.206;15.978;2023-07-13T10:10:19;98673.97;;;24.39;nan
68169;BME280;54981;50.206;15.978;2023-07-13T10:12:51;98672.63;;;24.35;nan
68169;BME280;54981;50.206;15.978;2023-07-13T10:15:23;98669.25;;;24.33;nan
68169;BME280;54981;50.206;15.978;2023-07-13T10:17:55;98671.19;;;24.56;nan
68169;BME280;54981;50.206;15.978;2023-07-13T10:20:28;98675.66;;;24.95;nan
68169;BME280;54981;50.206;15.978;2023-07-13T10:23:05;98679.13;;;25.03;nan
68169;BME280;54981;50.206;15.978;2023-07-13T10:25:43;98664.91;;;25.16;nan
68169;BME280;54981;50.206;15.978;2023-07-13T10:28:35;98669.16;;;24.96;nan
68169;BME280;54981;50.206;15.978;2023-07-13T10:31:12;98675.03;;;24.84;nan
68169;BME280;54981;50.206;15.978;2023-07-13T10:33:43;98671.09;;;25.78;nan
68169;BME280;54981;50.206;15.978;2023-07-13T10:36:27;98672.13;;;26.06;nan
68169;BME280;54981;50.206;15.978;2023-07-13T10:39:02;98674.47;;;26.24;nan
68169;BME280;54981;50.206;15.978;2023-07-13T10:41:39;98683.53;;;26.10;nan
68169;BME280;54981;50.206;15.978;2023-07-13T10:44:18;98667.63;;;25.99;nan
68169;BME280;54981;50.206;15.978;2023-07-13T10:46:52;98663.94;;;26.43;nan
68169;BME280;54981;50.206;15.978;2023-07-13T10:49:24;98659.38;;;26.65;nan
68169;BME280;54981;50.206;15.978;2023-07-13T10:51:56;98661.34;;;26.71;nan
68169;BME280;54981;50.206;15.978;2023-07-13T10:54:34;98664.91;;;26.71;nan
68169;BME280;54981;50.206;15.978;2023-07-13T10:57:14;98670.31;;;26.28;nan
68169;BME280;54981;50.206;15.978;2023-07-13T11:00:16;98656.25;;;25.95;nan
68169;BME280;54981;50.206;15.978;2023-07-13T11:02:57;98654.72;;;27.02;nan
68169;BME280;54981;50.206;15.978;2023-07-13T11:05:32;98643.84;;;26.87;nan
68169;BME280;54981;50.206;15.978;2023-07-13T11:21:32;98666.94;;;26.63;nan
68169;BME280;54981;50.206;15.978;2023-07-13T11:24:16;98663.16;;;26.27;nan
68169;BME280;54981;50.206;15.978;2023-07-13T11:31:55;98663.59;;;26.46;nan
68169;BME280;54981;50.206;15.978;2023-07-13T11:34:33;98673.19;;;27.21;nan
68169;BME280;54981;50.206;15.978;2023-07-13T11:37:12;98669.53;;;28.05;nan
68169;BME280;54981;50.206;15.978;2023-07-13T11:39:47;98665.59;;;27.45;nan
68169;BME280;54981;50.206;15.978;2023-07-13T11:42:19;98665.53;;;27.73;nan
68169;BME280;54981;50.206;15.978;2023-07-13T11:44:52;98663.72;;;28.21;nan
68169;BME280;54981;50.206;15.978;2023-07-13T11:47:24;98653.59;;;27.46;nan
68169;BME280;54981;50.206;15.978;2023-07-13T11:49:56;98648.72;;;26.48;nan
68169;BME280;54981;50.206;15.978;2023-07-13T11:52:33;98653.44;;;26.03;nan
68169;BME280;54981;50.206;15.978;2023-07-13T11:55:14;98660.19;;;25.92;nan
68169;BME280;54981;50.206;15.978;2023-07-13T11:57:58;98655.97;;;25.60;nan
68169;BME280;54981;50.206;15.978;2023-07-13T12:00:31;98653.41;;;25.06;nan
68169;BME280;54981;50.206;15.978;2023-07-13T12:03:04;98668.16;;;24.97;nan
68169;BME280;54981;50.206;15.978;2023-07-13T12:05:35;98660.19;;;25.10;nan
68169;BME280;54981;50.206;15.978;2023-07-13T12:08:10;98663.72;;;25.19;nan
68169;BME280;54981;50.206;15.978;2023-07-13T12:10:44;98665.44;;;24.97;nan
68169;BME280;54981;50.206;15.978;2023-07-13T12:13:17;98680.38;;;24.78;nan
68169;BME280;54981;50.206;15.978;2023-07-13T12:15:48;98678.38;;;24.49;nan
68169;BME280;54981;50.206;15.978;2023-07-13T12:18:23;98684.66;;;24.18;nan
68169;BME280;54981;50.206;15.978;2023-07-13T12:20:59;98705.22;;;23.56;nan
68169;BME280;54981;50.206;15.978;2023-07-13T12:23:34;98705.25;;;23.48;nan
68169;BME280;54981;50.206;15.978;2023-07-13T12:26:06;98685.97;;;23.83;nan
68169;BME280;54981;50.206;15.978;2023-07-13T12:28:53;98697.75;;;24.54;nan
68169;BME280;54981;50.206;15.978;2023-07-13T12:34:09;98686.88;;;26.12;nan
68169;BME280;54981;50.206;15.978;2023-07-13T12:36:59;98682.63;;;26.75;nan
68169;BME280;54981;50.206;15.978;2023-07-13T12:39:47;98674.69;;;27.52;nan
68169;BME280;54981;50.206;15.978;2023-07-13T12:45:20;98670.41;;;28.74;nan
68169;BME280;54981;50.206;15.978;2023-07-13T12:47:59;98663.72;;;29.36;nan
68169;BME280;54981;50.206;15.978;2023-07-13T12:50:39;98653.72;;;29.88;nan
68169;BME280;54981;50.206;15.978;2023-07-13T12:53:20;98659.97;;;30.09;nan
68169;BME280;54981;50.206;15.978;2023-07-13T12:55:57;98654.78;;;30.46;nan
68169;BME280;54981;50.206;15.978;2023-07-13T12:58:36;98657.06;;;31.12;nan
68169;BME280;54981;50.206;15.978;2023-07-13T13:01:09;98649.50;;;31.33;nan
68169;BME280;54981;50.206;15.978;2023-07-13T13:03:45;98642.53;;;31.55;nan
68169;BME280;54981;50.206;15.978;2023-07-13T13:08:54;98645.91;;;31.07;nan
68169;BME280;54981;50.206;15.978;2023-07-13T13:11:25;98641.84;;;30.53;nan
68169;BME280;54981;50.206;15.978;2023-07-13T13:13:56;98643.81;;;31.03;nan
68169;BME280;54981;50.206;15.978;2023-07-13T13:19:00;98635.47;;;30.14;nan
68169;BME280;54981;50.206;15.978;2023-07-13T13:21:32;98633.31;;;29.04;nan
68169;BME280;54981;50.206;15.978;2023-07-13T13:24:14;98627.00;;;29.30;nan
68169;BME280;54981;50.206;15.978;2023-07-13T13:26:45;98635.47;;;29.09;nan
68169;BME280;54981;50.206;15.978;2023-07-13T13:29:22;98632.47;;;28.71;nan
68169;BME280;54981;50.206;15.978;2023-07-13T13:31:55;98628.03;;;28.83;nan
68169;BME280;54981;50.206;15.978;2023-07-13T13:34:25;98622.59;;;29.23;nan
68169;BME280;54981;50.206;15.978;2023-07-13T13:36:56;98623.38;;;29.57;nan
68169;BME280;54981;50.206;15.978;2023-07-13T13:39:35;98634.59;;;28.95;nan
68169;BME280;54981;50.206;15.978;2023-07-13T13:42:09;98640.69;;;28.71;nan
68169;BME280;54981;50.206;15.978;2023-07-13T13:44:40;98622.72;;;28.55;nan
68169;BME280;54981;50.206;15.978;2023-07-13T13:47:28;98626.72;;;28.52;nan
68169;BME280;54981;50.206;15.978;2023-07-13T13:49:59;98622.16;;;28.11;nan
68169;BME280;54981;50.206;15.978;2023-07-13T13:52:30;98618.56;;;28.85;nan
68169;BME280;54981;50.206;15.978;2023-07-13T13:55:11;98617.84;;;29.83;nan
68169;BME280;54981;50.206;15.978;2023-07-13T13:57:42;98621.97;;;29.14;nan
68169;BME280;54981;50.206;15.978;2023-07-13T14:00:13;98612.28;;;28.10;nan
68169;BME280;54981;50.206;15.978;2023-07-13T14:02:48;98615.63;;;27.71;nan
68169;BME280;54981;50.206;15.978;2023-07-13T14:05:22;98600.78;;;26.89;nan
68169;BME280;54981;50.206;15.978;2023-07-13T14:07:54;98600.69;;;27.04;nan
68169;BME280;54981;50.206;15.978;2023-07-13T14:10:25;98599.88;;;26.82;nan
68169;BME280;54981;50.206;15.978;2023-07-13T14:12:56;98585.94;;;27.26;nan
68169;BME280;54981;50.206;15.978;2023-07-13T14:15:28;98583.25;;;28.22;nan
68169;BME280;54981;50.206;15.978;2023-07-13T14:18:00;98596.84;;;28.71;nan
68169;BME280;54981;50.206;15.978;2023-07-13T14:20:31;98601.03;;;28.46;nan
68169;BME280;54981;50.206;15.978;2023-07-13T14:23:02;98605.09;;;28.84;nan
68169;BME280;54981;50.206;15.978;2023-07-13T14:25:32;98597.91;;;28.70;nan
68169;BME280;54981;50.206;15.978;2023-07-13T14:28:24;98582.63;;;29.73;nan